Time;durP1;ratioP1;P1;durP2;ratioP2;P2;SDS_P1;SDS_P2;PMS_P1;PMS_P2;Temp;Humidity;BMP_temperature;BMP_pressure;BME280_temperature;BME280_humidity;BME280_pressure;Samples;Min_cycle;Max_cycle;Signal;HPM_P1;HPM_P2
2023/09/12 00:06:52;;;;;;;75.50;41.00;;;18.80;99.90;;;;;;20518872;28;20050;-44
2023/09/12 00:16:55;;;;;;;85.45;44.17;;;18.80;99.90;;;;;;20516443;28;20049;-44
2023/09/12 00:26:55;;;;;;;66.10;39.38;;;18.70;99.90;;;;;;20516715;28;20042;-44
2023/09/12 00:36:56;;;;;;;70.07;38.15;;;18.60;99.90;;;;;;20516492;28;20082;-44
2023/09/12 00:46:57;;;;;;;78.50;40.85;;;18.50;99.90;;;;;;20515653;28;20039;-44
2023/09/12 00:56:58;;;;;;;77.38;41.88;;;18.50;99.90;;;;;;20515108;28;20084;-44
2023/09/12 01:06:59;;;;;;;71.60;38.33;;;18.40;99.90;;;;;;20512160;28;20047;-44
2023/09/12 01:17:03;;;;;;;71.88;37.78;;;18.40;99.90;;;;;;20513376;28;20046;-44
2023/09/12 01:27:38;;;;;;;72.88;39.63;;;18.30;99.90;;;;;;20511872;28;20508;-44
2023/09/12 01:37:39;;;;;;;65.22;35.88;;;18.30;99.90;;;;;;20513391;28;20043;-44
2023/09/12 01:47:41;;;;;;;78.00;39.90;;;18.10;99.90;;;;;;20510409;28;20039;-44
2023/09/12 01:57:41;;;;;;;84.95;43.33;;;18.20;99.90;;;;;;20508812;28;20041;-44
2023/09/12 02:07:42;;;;;;;78.57;42.20;;;18.30;99.90;;;;;;20510209;28;20039;-44
2023/09/12 02:17:43;;;;;;;86.18;45.35;;;18.30;99.90;;;;;;20507590;28;20838;-44
2023/09/12 02:27:43;;;;;;;91.72;47.72;;;18.30;99.90;;;;;;20504465;28;20538;-44
2023/09/12 02:37:44;;;;;;;96.50;52.70;;;18.30;99.90;;;;;;20508662;28;20051;-44
2023/09/12 02:47:46;;;;;;;80.43;46.60;;;18.40;99.90;;;;;;20508186;28;20039;-44
2023/09/12 02:57:46;;;;;;;75.80;43.85;;;18.40;99.90;;;;;;20506772;28;20050;-44
2023/09/12 03:07:47;;;;;;;79.95;46.53;;;18.40;99.90;;;;;;20509605;28;20051;-44
2023/09/12 03:17:48;;;;;;;76.13;45.75;;;18.40;99.90;;;;;;20506879;28;20034;-44
2023/09/12 03:27:48;;;;;;;70.70;43.50;;;18.50;99.90;;;;;;20510076;28;20510;-44
2023/09/12 03:37:49;;;;;;;79.40;44.30;;;18.40;99.90;;;;;;20521507;28;20046;-44
2023/09/12 03:47:51;;;;;;;69.00;38.50;;;18.50;99.90;;;;;;20521988;28;20051;-43
2023/09/12 03:57:52;;;;;;;74.93;40.65;;;18.50;99.90;;;;;;20517014;28;20039;-44
2023/09/12 04:07:53;;;;;;;66.22;37.67;;;18.50;99.90;;;;;;20519078;28;20065;-44
2023/09/12 04:17:53;;;;;;;70.90;37.85;;;18.50;99.90;;;;;;20517561;28;20035;-44
2023/09/12 04:27:54;;;;;;;77.30;40.65;;;18.50;99.90;;;;;;20515477;28;20046;-43
2023/09/12 04:37:54;;;;;;;74.32;39.20;;;18.60;99.90;;;;;;20517690;28;20431;-43
2023/09/12 04:47:55;;;;;;;66.18;35.58;;;18.60;99.90;;;;;;20515996;28;20082;-44
2023/09/12 04:57:55;;;;;;;74.97;40.83;;;18.60;99.90;;;;;;20513357;28;20122;-44
2023/09/12 05:07:56;;;;;;;74.88;38.70;;;18.60;99.90;;;;;;20515318;28;20043;-44
2023/09/12 05:17:56;;;;;;;67.95;35.40;;;18.60;99.90;;;;;;20512544;28;20035;-43
2023/09/12 05:27:57;;;;;;;69.40;34.65;;;18.60;99.90;;;;;;20512829;28;20054;-44
2023/09/12 05:37:58;;;;;;;63.20;32.47;;;18.60;99.90;;;;;;20512760;28;20046;-44
2023/09/12 05:47:59;;;;;;;59.90;30.48;;;18.60;99.90;;;;;;20512004;28;20059;-44
2023/09/12 05:58:00;;;;;;;51.63;28.88;;;18.60;99.90;;;;;;20509489;28;20428;-44
2023/09/12 06:08:00;;;;;;;59.10;32.00;;;18.60;99.90;;;;;;20509645;28;20053;-44
2023/09/12 06:18:01;;;;;;;56.50;30.53;;;18.70;99.90;;;;;;20508837;28;20252;-43
2023/09/12 06:28:01;;;;;;;63.83;33.13;;;18.70;99.90;;;;;;20507603;28;20132;-44
2023/09/12 06:38:02;;;;;;;59.80;31.10;;;18.80;99.90;;;;;;20509362;28;20124;-44
2023/09/12 06:48:03;;;;;;;59.70;30.67;;;18.80;99.90;;;;;;20507154;28;20502;-44
2023/09/12 06:58:04;;;;;;;61.28;29.98;;;18.90;99.90;;;;;;20507210;28;20772;-43
2023/09/12 07:08:05;;;;;;;69.10;32.27;;;18.90;99.90;;;;;;20519406;28;20046;-44
2023/09/12 07:18:06;;;;;;;61.50;28.98;;;19.00;99.90;;;;;;20521498;28;20039;-44
2023/09/12 07:28:07;;;;;;;77.57;34.25;;;19.10;99.90;;;;;;20532702;28;20049;-44
2023/09/12 07:38:08;;;;;;;70.57;34.08;;;19.40;99.90;;;;;;20521349;28;20067;-44
2023/09/12 07:48:11;;;;;;;73.57;34.35;;;19.50;99.90;;;;;;20519110;28;20131;-43
2023/09/12 07:58:16;;;;;;;77.53;34.35;;;19.70;99.90;;;;;;20518708;28;20570;-44
2023/09/12 08:08:16;;;;;;;79.78;36.38;;;19.90;99.90;;;;;;20517830;28;20051;-44
2023/09/12 08:18:17;;;;;;;73.65;35.45;;;20.10;99.90;;;;;;20517230;28;20407;-44
2023/09/12 08:28:17;;;;;;;73.70;36.10;;;20.10;99.90;;;;;;20514136;28;20426;-44
2023/09/12 08:38:18;;;;;;;70.30;34.13;;;20.30;99.90;;;;;;20518657;28;21111;-44
2023/09/12 08:48:21;;;;;;;65.15;34.00;;;20.40;99.90;;;;;;20515397;28;20051;-44
2023/09/12 08:58:23;;;;;;;65.35;34.92;;;20.60;99.90;;;;;;20513090;28;20047;-45
2023/09/12 09:08:23;;;;;;;58.25;32.53;;;20.90;99.90;;;;;;20514131;28;20403;-44
2023/09/12 09:18:24;;;;;;;59.58;32.78;;;21.00;99.90;;;;;;20512913;28;20500;-44
2023/09/12 09:28:26;;;;;;;55.53;31.65;;;21.30;75.10;;;;;;20511588;28;20098;-44
2023/09/12 09:38:26;;;;;;;54.78;32.05;;;21.90;28.70;;;;;;20512740;28;20408;-44
2023/09/12 09:48:27;;;;;;;48.50;29.35;;;22.10;1.00;;;;;;20510059;28;20078;-44
2023/09/12 09:58:28;;;;;;;44.10;27.48;;;22.30;1.00;;;;;;20510770;28;20049;-44
2023/09/12 10:08:29;;;;;;;44.80;27.80;;;22.50;1.00;;;;;;20510108;28;20125;-44
2023/09/12 10:18:37;;;;;;;40.22;26.08;;;22.80;1.00;;;;;;20511092;28;20557;-44
2023/09/12 10:28:42;;;;;;;41.00;25.95;;;22.90;1.00;;;;;;20507184;28;20062;-44
2023/09/12 10:38:45;;;;;;;39.75;25.88;;;22.90;1.00;;;;;;20515972;28;20043;-44
2023/09/12 10:48:45;;;;;;;31.92;21.45;;;22.80;1.00;;;;;;20521820;28;20047;-44
2023/09/12 10:59:04;;;;;;;38.83;25.77;;;23.30;1.00;;;;;;20523075;28;20507;-44
2023/09/12 11:09:14;;;;;;;31.15;20.85;;;23.90;1.00;;;;;;20523917;28;20823;-44
2023/09/12 11:19:19;;;;;;;27.98;18.98;;;24.30;1.00;;;;;;20521294;28;20046;-44
2023/09/12 11:29:20;;;;;;;31.83;21.25;;;24.40;1.00;;;;;;20519620;28;20054;-44
2023/09/12 11:39:28;;;;;;;27.55;20.23;;;24.40;1.00;;;;;;20520805;28;20043;-44
2023/09/12 11:49:36;;;;;;;27.48;20.05;;;24.50;1.00;;;;;;20518602;28;20150;-44
2023/09/12 11:59:43;;;;;;;25.50;18.23;;;24.00;1.00;;;;;;20519663;28;20494;-44
2023/09/12 12:09:44;;;;;;;22.87;17.03;;;23.70;1.00;;;;;;20519904;28;20402;-44
2023/09/12 12:19:46;;;;;;;15.95;11.98;;;23.20;1.00;;;;;;20518234;28;20091;-44
2023/09/12 12:29:46;;;;;;;9.70;6.22;;;22.90;1.00;;;;;;20517237;28;20107;-44
2023/09/12 12:39:47;;;;;;;21.67;14.23;;;22.50;1.00;;;;;;20516133;28;20045;-43
2023/09/12 12:49:52;;;;;;;28.53;19.70;;;22.30;1.00;;;;;;20515763;28;20070;-44
2023/09/12 12:59:53;;;;;;;18.70;11.68;;;21.70;16.10;;;;;;20512679;28;20581;-45
2023/09/12 13:09:54;;;;;;;18.75;12.10;;;19.80;58.30;;;;;;20514844;28;20276;-47
2023/09/12 13:19:54;;;;;;;22.40;13.10;;;19.60;99.90;;;;;;20512310;28;20407;-47
2023/09/12 13:29:55;;;;;;;24.55;15.30;;;19.60;99.90;;;;;;20512220;28;20395;-48
2023/09/12 13:39:56;;;;;;;17.23;11.80;;;20.20;99.90;;;;;;20512822;28;20403;-46
2023/09/12 13:49:57;;;;;;;16.75;11.48;;;21.00;99.90;;;;;;20510762;28;20043;-46
2023/09/12 13:59:57;;;;;;;18.50;11.85;;;21.10;99.90;;;;;;20510413;28;20143;-45
2023/09/12 14:09:58;;;;;;;12.30;9.20;;;21.30;99.90;;;;;;20508167;28;20043;-45
2023/09/12 14:19:58;;;;;;;13.63;10.43;;;21.20;99.90;;;;;;20509440;28;20085;-45
2023/09/12 14:29:59;;;;;;;15.77;11.27;;;21.40;99.90;;;;;;20509623;28;20054;-45
2023/09/12 14:40:03;;;;;;;15.77;12.18;;;21.60;99.90;;;;;;20507628;28;20158;-46
2023/09/12 14:50:04;;;;;;;13.15;9.15;;;21.70;99.90;;;;;;20509741;28;20071;-46
2023/09/12 15:00:06;;;;;;;7.47;5.07;;;21.40;99.90;;;;;;20506637;28;20452;-45
2023/09/12 15:10:06;;;;;;;7.05;5.53;;;21.40;99.90;;;;;;20507233;28;20529;-46
2023/09/12 15:20:07;;;;;;;8.05;6.50;;;21.40;99.90;;;;;;20507741;28;20451;-45
2023/09/12 15:30:08;;;;;;;10.45;6.38;;;21.10;99.90;;;;;;20518056;28;20046;-45
2023/09/12 15:40:09;;;;;;;10.63;6.97;;;20.80;99.90;;;;;;20520055;28;20051;-46
2023/09/12 15:50:10;;;;;;;8.75;6.80;;;20.50;99.90;;;;;;20519966;28;20046;-44
2023/09/12 16:00:11;;;;;;;9.60;7.72;;;20.30;99.90;;;;;;20518977;28;20491;-45
2023/09/12 16:10:14;;;;;;;11.27;8.82;;;20.30;99.90;;;;;;20520155;28;20059;-45
2023/09/12 16:20:14;;;;;;;14.60;10.63;;;20.30;99.90;;;;;;20517982;28;20035;-45
2023/09/12 16:30:15;;;;;;;12.18;8.95;;;20.40;99.90;;;;;;20517941;28;20119;-45
2023/09/12 16:40:16;;;;;;;16.25;11.50;;;20.50;99.90;;;;;;20515205;28;20043;-46
2023/09/12 16:50:18;;;;;;;13.57;9.60;;;20.40;99.90;;;;;;20515820;28;20101;-45
2023/09/12 17:00:19;;;;;;;16.38;11.93;;;20.40;99.90;;;;;;20514751;28;20478;-45
2023/09/12 17:10:20;;;;;;;17.33;13.40;;;20.40;99.90;;;;;;20514200;28;20047;-45
2023/09/12 17:20:21;;;;;;;21.60;15.07;;;20.50;99.90;;;;;;20515392;28;20041;-45
2023/09/12 17:30:22;;;;;;;23.43;16.37;;;20.50;99.90;;;;;;20510636;28;20058;-45
2023/09/12 17:40:22;;;;;;;20.38;14.07;;;20.50;99.90;;;;;;20513052;28;20471;-45
2023/09/12 17:50:24;;;;;;;19.48;14.60;;;20.40;99.90;;;;;;20510037;28;20042;-44
2023/09/12 18:00:27;;;;;;;18.10;13.05;;;20.40;99.90;;;;;;20508923;28;20042;-45
2023/09/12 18:10:28;;;;;;;20.15;14.90;;;20.30;99.90;;;;;;20510476;28;20681;-45
2023/09/12 18:20:31;;;;;;;20.17;14.23;;;20.20;99.90;;;;;;20509412;28;20074;-45
2023/09/12 18:30:31;;;;;;;20.38;15.93;;;20.30;99.90;;;;;;20509344;28;20097;-45
2023/09/12 18:40:32;;;;;;;19.65;14.23;;;20.20;99.90;;;;;;20508006;28;20036;-45
2023/09/12 18:50:32;;;;;;;20.08;15.60;;;20.20;99.90;;;;;;20509812;28;20115;-45
2023/09/12 19:00:33;;;;;;;23.42;17.05;;;20.20;99.90;;;;;;20515318;28;20077;-46
2023/09/12 19:10:34;;;;;;;20.27;14.70;;;20.20;99.90;;;;;;20522849;28;20045;-44
2023/09/12 19:20:35;;;;;;;23.73;16.35;;;20.10;99.90;;;;;;20523379;28;20097;-44
2023/09/12 19:30:38;;;;;;;18.65;13.75;;;20.20;99.90;;;;;;20521068;28;20046;-45
2023/09/12 19:40:40;;;;;;;16.48;12.07;;;20.10;99.90;;;;;;20519572;28;20515;-45
2023/09/12 19:50:42;;;;;;;14.30;10.80;;;20.10;99.90;;;;;;20521925;28;20138;-45
2023/09/12 20:00:43;;;;;;;13.57;10.93;;;20.00;99.90;;;;;;20518032;28;20050;-45
2023/09/12 20:10:43;;;;;;;14.07;10.18;;;19.90;99.90;;;;;;20517458;28;20042;-45
2023/09/12 20:20:45;;;;;;;14.40;10.38;;;19.90;99.90;;;;;;20518722;28;20046;-45
2023/09/12 20:30:46;;;;;;;12.63;10.05;;;19.80;99.90;;;;;;20518318;28;20046;-46
2023/09/12 20:40:46;;;;;;;11.68;9.50;;;19.70;99.90;;;;;;20516810;28;20235;-45
2023/09/12 20:50:47;;;;;;;11.88;9.32;;;19.70;99.90;;;;;;20516634;28;20301;-46
2023/09/12 21:00:47;;;;;;;12.73;10.02;;;19.60;99.90;;;;;;20514991;28;20530;-46
2023/09/12 21:10:48;;;;;;;11.20;9.73;;;19.60;99.90;;;;;;20512670;28;20047;-45
2023/09/12 21:20:48;;;;;;;11.75;9.60;;;19.50;99.90;;;;;;20512684;28;20121;-45
2023/09/12 21:30:49;;;;;;;14.45;11.05;;;19.50;99.90;;;;;;20511510;28;20069;-45
2023/09/12 21:40:50;;;;;;;12.90;9.93;;;19.40;99.90;;;;;;20512531;28;20047;-45
2023/09/12 21:50:51;;;;;;;16.00;10.32;;;19.40;99.90;;;;;;20512772;28;20039;-46
2023/09/12 22:00:52;;;;;;;12.32;9.65;;;19.30;99.90;;;;;;20509387;28;20042;-45
2023/09/12 22:10:52;;;;;;;10.75;9.43;;;19.30;99.90;;;;;;20509485;28;20387;-45
2023/09/12 22:20:53;;;;;;;18.45;13.85;;;19.20;99.90;;;;;;20510324;28;20034;-45
2023/09/12 22:30:53;;;;;;;18.85;15.15;;;19.20;99.90;;;;;;20510091;28;20368;-45
2023/09/12 22:40:54;;;;;;;16.95;12.55;;;19.30;99.90;;;;;;20536684;28;20572;-45
2023/09/12 22:50:55;;;;;;;9.38;7.50;;;19.30;99.90;;;;;;20535113;28;20486;-45
2023/09/12 23:00:55;;;;;;;8.48;6.80;;;19.30;99.90;;;;;;20535063;28;20034;-44
2023/09/12 23:10:56;;;;;;;7.70;5.68;;;19.30;99.90;;;;;;20534034;28;20961;-45
2023/09/12 23:20:57;;;;;;;6.93;5.03;;;19.30;99.90;;;;;;20534788;28;20554;-45
2023/09/12 23:30:59;;;;;;;5.68;4.32;;;19.20;99.90;;;;;;20531687;28;20053;-45
2023/09/12 23:40:59;;;;;;;6.95;4.70;;;19.10;99.90;;;;;;20534590;28;20118;-45
2023/09/12 23:51:00;;;;;;;6.43;4.90;;;19.00;99.90;;;;;;20522313;28;20514;-45
